Time;durP1;ratioP1;P1;durP2;ratioP2;P2;SDS_P1;SDS_P2;PMS_P1;PMS_P2;Temp;Humidity;BMP_temperature;BMP_pressure;BME280_temperature;BME280_humidity;BME280_pressure;Samples;Min_cycle;Max_cycle;Signal;HPM_P1;HPM_P2
2023/04/03 00:00:39;;;;;;;9.20;8.90;;;3.80;99.90;;;;;;5005040;28;20248;-81
2023/04/03 00:03:07;;;;;;;9.20;8.90;;;3.80;99.90;;;;;;5005291;28;20233;-82
2023/04/03 00:05:35;;;;;;;9.07;8.87;;;3.90;99.90;;;;;;5004452;28;20241;-82
2023/04/03 00:08:07;;;;;;;9.27;8.97;;;3.90;99.90;;;;;;5004512;28;20233;-82
2023/04/03 00:10:36;;;;;;;9.50;9.20;;;3.90;99.90;;;;;;5004768;28;20229;-82
2023/04/03 00:13:04;;;;;;;9.00;8.80;;;3.90;99.90;;;;;;5004128;28;20243;-82
2023/04/03 00:15:42;;;;;;;9.30;9.00;;;3.90;99.90;;;;;;5004574;28;20305;-81
2023/04/03 00:18:16;;;;;;;9.27;8.97;;;3.90;99.90;;;;;;5004240;28;20263;-82
2023/04/03 00:20:44;;;;;;;9.20;8.90;;;3.90;99.90;;;;;;5005297;28;20236;-82
2023/04/03 00:23:13;;;;;;;9.47;9.17;;;3.90;99.90;;;;;;5005443;28;20316;-80
2023/04/03 00:25:41;;;;;;;9.20;8.90;;;3.80;99.90;;;;;;5004536;28;20291;-82
2023/04/03 00:28:11;;;;;;;9.50;9.20;;;3.90;99.90;;;;;;5004281;28;20243;-82
2023/04/03 00:30:40;;;;;;;9.50;9.20;;;3.80;99.90;;;;;;5004942;28;20236;-82
2023/04/03 00:33:10;;;;;;;9.40;9.10;;;3.80;99.90;;;;;;5004945;28;20332;-82
2023/04/03 00:35:40;;;;;;;9.50;9.20;;;3.80;99.90;;;;;;5003528;28;20259;-82
2023/04/03 00:38:08;;;;;;;9.50;9.20;;;3.80;99.90;;;;;;5004007;28;20243;-82
2023/04/03 00:40:39;;;;;;;9.57;9.27;;;3.80;99.90;;;;;;5003958;28;20331;-82
2023/04/03 00:43:16;;;;;;;9.40;9.10;;;3.80;99.90;;;;;;5005086;28;20418;-82
2023/04/03 00:45:53;;;;;;;9.53;9.23;;;3.80;99.90;;;;;;5004304;28;20241;-82
2023/04/03 00:48:24;;;;;;;9.60;9.30;;;3.80;99.90;;;;;;5003712;28;20456;-82
2023/04/03 00:50:54;;;;;;;9.57;9.27;;;3.80;99.90;;;;;;5003488;28;20232;-82
2023/04/03 00:53:30;;;;;;;9.50;9.20;;;3.70;99.90;;;;;;5004646;28;20236;-81
2023/04/03 00:56:01;;;;;;;9.40;9.10;;;3.70;99.90;;;;;;4996430;28;20327;-82
2023/04/03 00:58:38;;;;;;;9.43;9.13;;;3.80;99.90;;;;;;5003973;28;20325;-81
2023/04/03 01:01:17;;;;;;;9.53;9.23;;;3.70;99.90;;;;;;5005104;28;20281;-82
2023/04/03 01:03:46;;;;;;;9.73;9.43;;;3.60;99.90;;;;;;5003613;28;20263;-82
2023/04/03 01:06:17;;;;;;;9.87;9.57;;;3.60;99.90;;;;;;5004121;28;20295;-82
2023/04/03 01:08:46;;;;;;;9.90;9.60;;;3.60;99.90;;;;;;5004528;28;20236;-82
2023/04/03 01:11:15;;;;;;;9.67;9.37;;;3.60;99.90;;;;;;5003036;28;20233;-81
2023/04/03 01:13:45;;;;;;;9.70;9.40;;;3.50;99.90;;;;;;5005863;28;20241;-81
2023/04/03 01:16:15;;;;;;;9.77;9.47;;;3.60;99.90;;;;;;5005080;28;20243;-82
2023/04/03 01:18:44;;;;;;;9.60;9.30;;;3.60;99.90;;;;;;5009933;28;20287;-81
2023/04/03 01:22:07;;;;;;;9.60;9.30;;;3.60;99.90;;;;;;5014183;28;20233;-82
2023/04/03 01:24:36;;;;;;;9.43;9.13;;;3.60;99.90;;;;;;4952973;28;20233;-82
2023/04/03 01:27:07;;;;;;;9.50;9.20;;;3.60;99.90;;;;;;5013982;28;20263;-81
2023/04/03 01:29:35;;;;;;;9.70;9.40;;;3.60;99.90;;;;;;5019351;28;20232;-81
2023/04/03 01:32:05;;;;;;;9.53;9.23;;;3.60;99.90;;;;;;5020244;28;20208;-81
2023/04/03 01:34:33;;;;;;;9.67;9.37;;;3.60;99.90;;;;;;5019556;28;20292;-81
2023/04/03 01:37:02;;;;;;;9.70;9.40;;;3.50;99.90;;;;;;5020210;28;20221;-79
2023/04/03 01:39:31;;;;;;;9.50;9.20;;;3.50;99.90;;;;;;5019067;28;20233;-81
2023/04/03 01:42:01;;;;;;;9.90;9.60;;;3.40;99.90;;;;;;5012938;28;20236;-81
2023/04/03 01:44:29;;;;;;;9.80;9.50;;;3.40;99.90;;;;;;5018928;28;20230;-81
2023/04/03 01:47:00;;;;;;;9.57;9.27;;;3.40;99.90;;;;;;5010181;28;20244;-81
2023/04/03 01:49:31;;;;;;;9.70;9.40;;;3.40;99.90;;;;;;5019242;28;20232;-81
2023/04/03 01:51:59;;;;;;;9.77;9.47;;;3.40;99.90;;;;;;5004372;28;20280;-81
2023/04/03 01:54:28;;;;;;;9.60;9.30;;;3.40;99.90;;;;;;5019283;28;20237;-80
2023/04/03 01:56:57;;;;;;;9.60;9.30;;;3.30;99.90;;;;;;5010882;28;20247;-80
2023/04/03 01:59:29;;;;;;;9.43;9.13;;;3.30;99.90;;;;;;5018754;28;20213;-80
2023/04/03 02:01:59;;;;;;;9.30;9.00;;;3.20;99.90;;;;;;5011132;28;20227;-80
2023/04/03 02:04:28;;;;;;;9.30;9.00;;;3.10;99.90;;;;;;5017593;28;20229;-80
2023/04/03 02:06:58;;;;;;;9.50;9.20;;;3.20;99.90;;;;;;5018223;28;20248;-80
2023/04/03 02:09:27;;;;;;;9.20;8.90;;;3.10;99.90;;;;;;5018772;28;20284;-79
2023/04/03 02:11:54;;;;;;;9.07;8.87;;;3.20;99.90;;;;;;5018838;28;20228;-80
2023/04/03 02:14:23;;;;;;;9.23;8.93;;;3.20;99.90;;;;;;5018714;28;20284;-79
2023/04/03 02:16:51;;;;;;;9.50;9.20;;;3.10;99.90;;;;;;5016946;28;20303;-80
2023/04/03 02:19:18;;;;;;;9.60;9.30;;;3.10;99.90;;;;;;5017397;28;20249;-81
2023/04/03 02:21:46;;;;;;;9.47;9.17;;;3.10;99.90;;;;;;5017328;28;20241;-81
2023/04/03 02:24:15;;;;;;;9.63;9.33;;;3.00;99.90;;;;;;5017137;28;20255;-81
2023/04/03 02:26:43;;;;;;;9.43;9.13;;;3.00;99.90;;;;;;5015228;28;20332;-81
2023/04/03 02:29:13;;;;;;;9.43;9.13;;;2.90;99.90;;;;;;5008662;28;20225;-80
2023/04/03 02:31:40;;;;;;;9.80;9.50;;;2.90;99.90;;;;;;5008273;28;20241;-81
2023/04/03 02:34:10;;;;;;;9.60;9.30;;;2.90;99.90;;;;;;5013255;28;20256;-81
2023/04/03 02:36:38;;;;;;;9.57;9.27;;;2.90;99.90;;;;;;5015461;28;20272;-81
2023/04/03 02:39:06;;;;;;;9.50;9.20;;;2.90;99.90;;;;;;5017014;28;20248;-80
2023/04/03 02:41:35;;;;;;;9.30;9.00;;;2.80;99.90;;;;;;5017194;28;20236;-81
2023/04/03 02:44:03;;;;;;;9.70;9.40;;;2.80;99.90;;;;;;5015394;28;20248;-81
2023/04/03 02:46:31;;;;;;;9.50;9.20;;;2.70;99.90;;;;;;5017688;28;20244;-79
2023/04/03 02:48:59;;;;;;;9.57;9.27;;;2.70;99.90;;;;;;5018194;28;20296;-81
2023/04/03 02:51:27;;;;;;;10.03;9.73;;;2.60;99.90;;;;;;5018110;28;20220;-80
2023/04/03 02:53:56;;;;;;;9.47;9.17;;;2.70;99.90;;;;;;5017509;28;20236;-81
2023/04/03 02:56:24;;;;;;;9.53;9.23;;;2.70;99.90;;;;;;5016070;28;20240;-81
2023/04/03 02:58:53;;;;;;;9.40;9.10;;;2.70;99.90;;;;;;5016696;28;20252;-80
2023/04/03 03:01:21;;;;;;;9.50;9.20;;;2.70;99.90;;;;;;5017917;28;20264;-80
2023/04/03 03:03:49;;;;;;;9.80;9.50;;;2.70;99.90;;;;;;5018083;28;20228;-80
2023/04/03 03:06:18;;;;;;;10.10;9.80;;;2.60;99.90;;;;;;5018167;28;20260;-80
2023/04/03 03:08:45;;;;;;;10.13;9.83;;;2.60;99.90;;;;;;5017693;28;20244;-80
2023/04/03 03:11:15;;;;;;;10.00;9.70;;;2.60;99.90;;;;;;5011114;28;20216;-81
2023/04/03 03:13:44;;;;;;;10.13;9.83;;;2.60;99.90;;;;;;4995099;28;20225;-82
2023/04/03 03:16:13;;;;;;;10.10;9.80;;;2.50;99.90;;;;;;4986343;28;20237;-82
2023/04/03 03:18:41;;;;;;;10.00;9.70;;;2.50;99.90;;;;;;4994444;28;20220;-81
2023/04/03 03:21:11;;;;;;;10.03;9.73;;;2.50;99.90;;;;;;4999675;28;20236;-82
2023/04/03 03:23:47;;;;;;;10.23;9.93;;;2.50;99.90;;;;;;4999226;28;20217;-82
2023/04/03 03:26:15;;;;;;;9.97;9.67;;;2.50;99.90;;;;;;4985248;28;20245;-82
2023/04/03 03:28:43;;;;;;;10.20;9.90;;;2.40;99.90;;;;;;4982757;28;20269;-82
2023/04/03 03:31:15;;;;;;;9.93;9.63;;;2.40;99.90;;;;;;4983294;28;20241;-82
2023/04/03 03:33:42;;;;;;;10.00;9.70;;;2.40;99.90;;;;;;4984290;28;20237;-82
2023/04/03 03:36:10;;;;;;;9.83;9.53;;;2.40;99.90;;;;;;4987529;28;20305;-82
2023/04/03 03:38:39;;;;;;;9.80;9.50;;;2.40;99.90;;;;;;4984082;28;20229;-82
2023/04/03 03:41:11;;;;;;;10.47;10.17;;;2.30;99.90;;;;;;4983855;28;20301;-80
2023/04/03 03:43:39;;;;;;;10.57;10.27;;;2.30;99.90;;;;;;4983545;28;20233;-82
2023/04/03 03:46:09;;;;;;;10.10;9.80;;;2.30;99.90;;;;;;4983147;28;20324;-82
2023/04/03 03:48:39;;;;;;;9.90;9.60;;;2.30;99.90;;;;;;4982951;28;20237;-82
2023/04/03 03:51:08;;;;;;;9.77;9.47;;;2.30;99.90;;;;;;4983460;28;20277;-83
2023/04/03 03:53:37;;;;;;;9.90;9.60;;;2.30;99.90;;;;;;4982958;28;20516;-82
2023/04/03 03:56:06;;;;;;;10.17;9.87;;;2.30;99.90;;;;;;4983420;28;20332;-82
2023/04/03 03:58:34;;;;;;;10.03;9.73;;;2.30;99.90;;;;;;4982762;28;20260;-82
2023/04/03 04:01:05;;;;;;;10.03;9.73;;;2.30;99.90;;;;;;4982577;28;20301;-82
2023/04/03 04:03:33;;;;;;;10.20;9.90;;;2.40;99.90;;;;;;4983015;28;20244;-83
2023/04/03 04:06:08;;;;;;;10.00;9.70;;;2.30;99.90;;;;;;4983164;28;20337;-82
2023/04/03 04:08:36;;;;;;;9.90;9.60;;;2.40;99.90;;;;;;4982997;28;20647;-82
2023/04/03 04:11:05;;;;;;;10.50;10.20;;;2.30;99.90;;;;;;4984713;28;20325;-82
2023/04/03 04:13:34;;;;;;;10.20;9.90;;;2.40;99.90;;;;;;4986290;28;20257;-82
2023/04/03 04:16:03;;;;;;;10.23;9.93;;;2.30;99.90;;;;;;4986424;28;20285;-82
2023/04/03 04:18:30;;;;;;;9.93;9.63;;;2.40;99.90;;;;;;4988486;28;20237;-82
2023/04/03 04:20:59;;;;;;;10.00;9.70;;;2.40;99.90;;;;;;4986504;28;20320;-82
2023/04/03 04:23:29;;;;;;;9.97;9.67;;;2.40;99.90;;;;;;4986531;28;20226;-82
2023/04/03 04:25:56;;;;;;;10.30;10.00;;;2.40;99.90;;;;;;4986126;28;20246;-82
2023/04/03 04:28:24;;;;;;;9.90;9.60;;;2.40;99.90;;;;;;4986413;28;20234;-82
2023/04/03 04:30:52;;;;;;;9.73;9.43;;;2.40;99.90;;;;;;4990553;28;20289;-82
2023/04/03 04:33:21;;;;;;;10.90;10.60;;;2.40;99.90;;;;;;4990450;28;20275;-82
2023/04/03 04:35:51;;;;;;;10.83;10.53;;;2.40;99.90;;;;;;4986489;28;20256;-82
2023/04/03 04:38:19;;;;;;;10.80;10.50;;;2.40;99.90;;;;;;4987119;28;20244;-82
2023/04/03 04:40:49;;;;;;;10.93;10.63;;;2.40;99.90;;;;;;4986398;28;20230;-83
2023/04/03 04:43:19;;;;;;;10.90;10.60;;;2.40;99.90;;;;;;4985686;28;20238;-82
2023/04/03 04:45:48;;;;;;;10.93;10.63;;;2.40;99.90;;;;;;4986028;28;20292;-81
2023/04/03 04:48:17;;;;;;;11.10;10.80;;;2.30;99.90;;;;;;4986759;28;20240;-82
2023/04/03 04:50:45;;;;;;;11.30;11.00;;;2.30;99.90;;;;;;4986156;28;20286;-82
2023/04/03 04:53:12;;;;;;;11.20;10.90;;;2.30;99.90;;;;;;4991301;28;20232;-82
2023/04/03 04:55:40;;;;;;;10.93;10.63;;;2.30;99.90;;;;;;5005397;28;20241;-82
2023/04/03 04:58:09;;;;;;;11.00;10.70;;;2.30;99.90;;;;;;5005129;28;20229;-82
2023/04/03 05:00:36;;;;;;;11.33;11.03;;;2.40;99.90;;;;;;5005923;28;20226;-82
2023/04/03 05:03:05;;;;;;;10.87;10.57;;;2.30;99.90;;;;;;5007716;28;20228;-82
2023/04/03 05:05:36;;;;;;;11.10;10.80;;;2.40;99.90;;;;;;5014159;28;20311;-82
2023/04/03 05:08:04;;;;;;;11.00;10.70;;;2.40;99.90;;;;;;5018233;28;20240;-81
2023/04/03 05:10:33;;;;;;;10.93;10.63;;;2.40;99.90;;;;;;5020828;28;20244;-82
2023/04/03 05:13:01;;;;;;;10.90;10.60;;;2.30;99.90;;;;;;5017688;28;20247;-82
2023/04/03 05:15:30;;;;;;;10.70;10.40;;;2.20;99.90;;;;;;5009883;28;20268;-82
2023/04/03 05:17:59;;;;;;;10.87;10.57;;;2.30;99.90;;;;;;5009006;28;20288;-81
2023/04/03 05:20:27;;;;;;;10.70;10.40;;;2.30;99.90;;;;;;5007927;28;20280;-82
2023/04/03 05:22:55;;;;;;;10.87;10.57;;;2.30;99.90;;;;;;5005294;28;20297;-82
2023/04/03 05:25:22;;;;;;;10.60;10.30;;;2.30;99.90;;;;;;5006583;28;20272;-81
2023/04/03 05:27:50;;;;;;;10.80;10.50;;;2.30;99.90;;;;;;5005806;28;20323;-82
2023/04/03 05:30:21;;;;;;;10.43;10.13;;;2.20;99.90;;;;;;5005350;28;20256;-82
2023/04/03 05:32:53;;;;;;;10.70;10.40;;;2.30;99.90;;;;;;5005583;28;20279;-82
2023/04/03 05:35:21;;;;;;;10.63;10.33;;;2.30;99.90;;;;;;5005437;28;20304;-82
2023/04/03 05:37:49;;;;;;;10.63;10.33;;;2.30;99.90;;;;;;5006226;28;20240;-82
2023/04/03 05:40:18;;;;;;;10.47;10.17;;;2.40;99.90;;;;;;5005363;28;20220;-82
2023/04/03 05:42:47;;;;;;;10.80;10.50;;;2.40;99.90;;;;;;5006159;28;20229;-82
2023/04/03 05:45:16;;;;;;;10.70;10.40;;;2.50;99.90;;;;;;5006867;28;20237;-82
2023/04/03 05:47:45;;;;;;;10.50;10.20;;;2.50;99.90;;;;;;5011520;28;20225;-82
2023/04/03 05:50:16;;;;;;;10.70;10.40;;;2.60;99.90;;;;;;5010098;28;20284;-82
2023/04/03 05:52:47;;;;;;;10.90;10.60;;;2.60;99.90;;;;;;5008242;28;20329;-83
2023/04/03 05:55:16;;;;;;;10.80;10.50;;;2.60;99.90;;;;;;5005963;28;20323;-83
2023/04/03 05:57:46;;;;;;;10.60;10.30;;;2.60;99.90;;;;;;5005015;28;20331;-82
2023/04/03 06:00:16;;;;;;;10.63;10.33;;;2.60;99.90;;;;;;5004997;28;20658;-83
2023/04/03 06:02:45;;;;;;;10.57;10.27;;;2.60;99.90;;;;;;5005351;28;20240;-80
2023/04/03 06:05:15;;;;;;;10.67;10.37;;;2.70;99.90;;;;;;5004655;28;20245;-80
2023/04/03 06:07:44;;;;;;;10.60;10.30;;;2.70;99.90;;;;;;5005733;28;20296;-80
2023/04/03 06:10:14;;;;;;;10.80;10.50;;;2.70;99.90;;;;;;5005272;28;20273;-80
2023/04/03 06:12:41;;;;;;;10.60;10.30;;;2.60;99.90;;;;;;5005014;28;20240;-80
2023/04/03 06:15:10;;;;;;;10.60;10.30;;;2.70;99.90;;;;;;5005274;28;20225;-80
2023/04/03 06:17:38;;;;;;;10.50;10.20;;;2.70;99.90;;;;;;5005141;28;20235;-81
2023/04/03 06:20:13;;;;;;;10.67;10.37;;;2.70;99.90;;;;;;5011365;28;20362;-80
2023/04/03 06:22:44;;;;;;;10.60;10.30;;;2.80;99.90;;;;;;5005347;28;20238;-83
2023/04/03 06:25:12;;;;;;;10.30;10.00;;;2.90;99.90;;;;;;5005827;28;20240;-80
2023/04/03 06:27:40;;;;;;;10.23;9.93;;;2.80;99.90;;;;;;5005114;28;20275;-81
2023/04/03 06:30:09;;;;;;;10.40;10.10;;;2.80;99.90;;;;;;5007219;28;21018;-81
2023/04/03 06:32:37;;;;;;;10.20;9.90;;;2.90;99.90;;;;;;5006656;28;20256;-82
2023/04/03 06:35:07;;;;;;;10.30;10.00;;;2.90;99.90;;;;;;5004531;28;20241;-81
2023/04/03 06:37:37;;;;;;;10.30;10.00;;;2.90;99.90;;;;;;5004789;28;20247;-81
2023/04/03 06:40:10;;;;;;;10.27;9.97;;;3.00;99.90;;;;;;4997640;28;20229;-81
2023/04/03 06:42:37;;;;;;;9.90;9.60;;;3.00;99.90;;;;;;5005582;28;20229;-80
2023/04/03 06:45:07;;;;;;;10.63;10.32;;;3.00;99.90;;;;;;5004686;28;20387;-80
2023/04/03 06:47:35;;;;;;;10.37;10.07;;;3.10;99.90;;;;;;5006310;28;20233;-80
2023/04/03 06:50:06;;;;;;;10.23;9.93;;;3.20;99.90;;;;;;5006068;28;20240;-80
2023/04/03 06:52:34;;;;;;;10.00;9.70;;;3.40;99.90;;;;;;5006872;28;20224;-80
2023/04/03 06:55:01;;;;;;;10.13;9.83;;;3.50;99.90;;;;;;5006107;28;20736;-80
2023/04/03 06:57:31;;;;;;;10.20;9.90;;;3.50;99.90;;;;;;5007049;28;20247;-80
2023/04/03 07:00:03;;;;;;;10.60;10.30;;;3.40;99.90;;;;;;5004834;28;20729;-82
2023/04/03 07:02:32;;;;;;;10.20;9.90;;;3.40;99.90;;;;;;5005162;28;20240;-82
2023/04/03 07:05:00;;;;;;;10.20;9.90;;;3.40;99.90;;;;;;5004647;28;20280;-82
2023/04/03 07:07:30;;;;;;;10.00;9.70;;;3.50;99.90;;;;;;5005309;28;20256;-81
2023/04/03 07:10:02;;;;;;;9.97;9.67;;;3.50;99.90;;;;;;5008448;28;20229;-82
2023/04/03 07:12:34;;;;;;;10.10;9.80;;;3.40;99.90;;;;;;5008590;28;20233;-82
2023/04/03 07:15:01;;;;;;;10.10;9.80;;;3.40;99.90;;;;;;5006688;28;20271;-82
2023/04/03 07:17:29;;;;;;;9.90;9.60;;;3.40;99.90;;;;;;5006712;28;20241;-82
2023/04/03 07:19:58;;;;;;;10.20;9.90;;;3.50;99.90;;;;;;5005742;28;20264;-82
2023/04/03 07:22:27;;;;;;;9.70;9.40;;;3.60;99.90;;;;;;5009325;28;20224;-82
2023/04/03 07:24:58;;;;;;;9.97;9.67;;;3.70;99.90;;;;;;5009308;28;20296;-83
2023/04/03 07:27:26;;;;;;;9.53;9.23;;;3.80;99.90;;;;;;5008819;28;20250;-81
2023/04/03 07:30:06;;;;;;;9.77;9.47;;;3.80;99.90;;;;;;5007824;28;20354;-81
2023/04/03 07:32:35;;;;;;;9.70;9.40;;;3.90;99.90;;;;;;5006186;28;20255;-81
2023/04/03 07:35:04;;;;;;;10.00;9.70;;;4.00;99.90;;;;;;5002312;28;20251;-82
2023/04/03 07:37:33;;;;;;;9.77;9.47;;;4.10;99.90;;;;;;5005609;28;20304;-81
2023/04/03 07:40:03;;;;;;;9.80;9.50;;;4.10;99.90;;;;;;5005473;28;20272;-81
2023/04/03 07:42:32;;;;;;;10.20;9.90;;;4.10;99.90;;;;;;5006992;28;20315;-81
2023/04/03 07:45:10;;;;;;;10.07;9.77;;;4.20;99.90;;;;;;5006333;28;20245;-82
2023/04/03 07:47:40;;;;;;;10.20;9.90;;;4.20;99.90;;;;;;5008651;28;20236;-81
2023/04/03 07:50:09;;;;;;;10.10;9.80;;;4.30;99.90;;;;;;5008379;28;20269;-81
2023/04/03 07:52:37;;;;;;;10.20;9.90;;;4.30;99.90;;;;;;5016441;28;20250;-81
2023/04/03 07:55:08;;;;;;;10.20;9.90;;;4.30;99.90;;;;;;5017515;28;20239;-81
2023/04/03 07:57:38;;;;;;;10.20;9.90;;;4.30;99.90;;;;;;5010951;28;20268;-81
2023/04/03 08:00:11;;;;;;;10.00;9.70;;;4.40;99.90;;;;;;5012337;28;20239;-82
2023/04/03 08:02:39;;;;;;;9.80;9.50;;;4.60;99.90;;;;;;5018878;28;20239;-82
2023/04/03 08:05:08;;;;;;;10.00;9.70;;;4.50;99.90;;;;;;5013556;28;20237;-81
2023/04/03 08:07:36;;;;;;;10.10;9.80;;;4.60;99.90;;;;;;5006709;28;20239;-82
2023/04/03 08:10:06;;;;;;;10.10;9.80;;;4.70;99.90;;;;;;5007676;28;20236;-82
2023/04/03 08:12:34;;;;;;;10.23;9.93;;;4.70;99.90;;;;;;5011932;28;20225;-82
2023/04/03 08:15:05;;;;;;;10.10;9.80;;;4.80;99.90;;;;;;5020243;28;20254;-82
2023/04/03 08:17:47;;;;;;;10.10;9.80;;;4.90;99.90;;;;;;5019834;28;20250;-81
2023/04/03 08:20:14;;;;;;;10.37;10.07;;;5.00;99.90;;;;;;5018727;28;20221;-81
2023/04/03 08:22:42;;;;;;;10.20;9.90;;;5.10;99.90;;;;;;5015078;28;20233;-82
2023/04/03 08:25:11;;;;;;;9.73;9.43;;;5.20;99.90;;;;;;5012932;28;20260;-82
2023/04/03 08:27:41;;;;;;;10.00;9.70;;;5.30;99.90;;;;;;5011847;28;20260;-81
2023/04/03 08:30:11;;;;;;;9.80;9.50;;;5.30;99.90;;;;;;5012164;28;20221;-82
2023/04/03 08:32:43;;;;;;;9.77;9.47;;;5.20;99.90;;;;;;5010851;28;20315;-82
2023/04/03 08:35:11;;;;;;;9.80;9.50;;;5.30;99.90;;;;;;5008527;28;20255;-82
2023/04/03 08:37:40;;;;;;;9.97;9.67;;;5.40;99.90;;;;;;5008146;28;20233;-82
2023/04/03 08:40:15;;;;;;;10.40;10.10;;;5.40;99.90;;;;;;5009254;28;20236;-80
2023/04/03 08:42:55;;;;;;;10.40;10.10;;;5.40;99.90;;;;;;5017190;28;20232;-84
2023/04/03 08:45:36;;;;;;;10.30;10.00;;;5.70;99.90;;;;;;5019694;28;20244;-83
2023/04/03 08:48:12;;;;;;;10.13;9.83;;;5.90;99.90;;;;;;5021682;28;20244;-84
2023/04/03 08:50:43;;;;;;;9.97;9.67;;;6.00;99.90;;;;;;5019947;28;20288;-86
2023/04/03 08:53:19;;;;;;;10.10;9.80;;;6.10;99.90;;;;;;5010658;28;20276;-85
2023/04/03 08:55:49;;;;;;;10.30;10.00;;;6.10;99.90;;;;;;5008593;28;20240;-85
2023/04/03 08:58:20;;;;;;;10.20;9.90;;;5.90;99.90;;;;;;4992431;28;20241;-85
2023/04/03 09:03:46;;;;;;;9.60;9.30;;;5.70;99.90;;;;;;4989088;28;20228;-84
2023/04/03 09:09:16;;;;;;;10.00;9.70;;;5.90;99.90;;;;;;4989199;28;20229;-83
2023/04/03 09:12:09;;;;;;;10.20;9.90;;;5.90;99.90;;;;;;4992167;28;20269;-85
2023/04/03 09:14:43;;;;;;;9.63;9.33;;;5.60;99.90;;;;;;5013588;28;20271;-86
2023/04/03 09:17:22;;;;;;;10.00;9.70;;;5.40;99.90;;;;;;5016205;28;20512;-86
2023/04/03 09:20:00;;;;;;;10.60;10.30;;;5.30;99.90;;;;;;5006621;28;20243;-86
2023/04/03 09:22:31;;;;;;;10.40;10.10;;;5.60;99.90;;;;;;5005286;28;20229;-86
2023/04/03 09:25:07;;;;;;;10.60;10.30;;;6.20;99.90;;;;;;5004564;28;20224;-87
2023/04/03 09:27:37;;;;;;;10.43;10.13;;;6.60;99.90;;;;;;5003643;28;20233;-87
2023/04/03 09:30:06;;;;;;;10.40;10.10;;;6.50;99.90;;;;;;5003699;28;20228;-87
2023/04/03 09:32:37;;;;;;;10.60;10.30;;;6.20;99.90;;;;;;5004973;28;20290;-85
2023/04/03 09:35:24;;;;;;;10.30;10.00;;;6.00;99.90;;;;;;5004324;28;20247;-85
2023/04/03 09:37:56;;;;;;;10.47;10.17;;;5.80;99.90;;;;;;5004012;28;20224;-85
2023/04/03 09:40:40;;;;;;;10.23;9.93;;;5.60;99.90;;;;;;5003311;28;20252;-85
2023/04/03 09:43:35;;;;;;;10.70;10.40;;;5.50;99.90;;;;;;5003938;28;20316;-85
2023/04/03 09:46:30;;;;;;;10.60;10.30;;;5.60;99.90;;;;;;5004844;28;20247;-86
2023/04/03 09:49:01;;;;;;;10.53;10.23;;;5.80;99.90;;;;;;5003448;28;20280;-85
2023/04/03 09:51:33;;;;;;;10.60;10.30;;;5.70;99.90;;;;;;5010135;28;20232;-85
2023/04/03 09:54:00;;;;;;;10.30;10.00;;;5.80;99.90;;;;;;5003774;28;20253;-85
2023/04/03 09:56:30;;;;;;;10.57;10.27;;;5.90;99.90;;;;;;5003119;28;20236;-85
2023/04/03 09:59:17;;;;;;;10.40;10.10;;;6.00;99.90;;;;;;5002667;28;20292;-86
2023/04/03 10:01:58;;;;;;;10.40;10.10;;;6.20;99.90;;;;;;5005700;28;20228;-85
2023/04/03 10:04:26;;;;;;;10.20;9.90;;;6.50;99.90;;;;;;5003659;28;20228;-87
2023/04/03 10:07:03;;;;;;;10.53;10.23;;;6.80;99.90;;;;;;5003592;28;20260;-85
2023/04/03 10:09:35;;;;;;;10.80;10.50;;;7.10;99.90;;;;;;5005340;28;20236;-85
2023/04/03 10:12:12;;;;;;;10.83;10.53;;;7.40;99.90;;;;;;5005158;28;20325;-86
2023/04/03 10:14:43;;;;;;;11.10;10.80;;;7.90;99.90;;;;;;5003520;28;20275;-85
2023/04/03 10:17:21;;;;;;;10.90;10.60;;;8.50;99.90;;;;;;5003716;28;20237;-85
2023/04/03 10:19:57;;;;;;;11.07;10.77;;;8.80;99.90;;;;;;5003024;28;20232;-87
2023/04/03 10:22:44;;;;;;;10.90;10.60;;;8.50;99.90;;;;;;5002529;28;20224;-86
2023/04/03 10:25:23;;;;;;;10.70;10.40;;;8.20;99.90;;;;;;5002798;28;20232;-87
2023/04/03 10:28:01;;;;;;;10.93;10.63;;;7.90;99.90;;;;;;5003300;28;20232;-86
2023/04/03 10:30:48;;;;;;;10.80;10.50;;;7.70;99.90;;;;;;5003797;28;20236;-87
2023/04/03 10:34:01;;;;;;;10.87;10.57;;;7.50;99.90;;;;;;5002975;28;20228;-86
2023/04/03 10:36:41;;;;;;;11.00;10.70;;;7.50;99.90;;;;;;5002789;28;20241;-86
2023/04/03 10:39:28;;;;;;;10.90;10.60;;;7.40;99.90;;;;;;5003174;28;20252;-87
2023/04/03 10:42:05;;;;;;;10.77;10.47;;;7.20;99.90;;;;;;5004821;28;20784;-86
2023/04/03 10:44:43;;;;;;;10.77;10.47;;;7.30;99.90;;;;;;5004004;28;20232;-86
2023/04/03 10:47:20;;;;;;;10.60;10.30;;;7.40;99.90;;;;;;5002014;28;20238;-86
2023/04/03 10:49:59;;;;;;;10.87;10.57;;;7.40;99.90;;;;;;5003130;28;20228;-86
2023/04/03 10:52:40;;;;;;;10.80;10.50;;;7.20;99.90;;;;;;5003210;28;20232;-85
2023/04/03 10:55:26;;;;;;;10.73;10.43;;;7.20;99.90;;;;;;5001815;28;20300;-86
2023/04/03 10:57:56;;;;;;;10.70;10.40;;;7.00;99.90;;;;;;5001261;28;20221;-86
2023/04/03 11:00:35;;;;;;;11.10;10.80;;;7.00;99.90;;;;;;5001316;28;20256;-85
2023/04/03 11:03:09;;;;;;;11.00;10.70;;;7.20;99.90;;;;;;5001894;28;20233;-85
2023/04/03 11:05:43;;;;;;;10.50;10.20;;;7.20;99.90;;;;;;5000815;28;20263;-88
2023/04/03 11:08:28;;;;;;;10.60;10.30;;;7.50;99.90;;;;;;5001252;28;20225;-85
2023/04/03 11:11:01;;;;;;;10.53;10.23;;;7.40;99.90;;;;;;5003135;28;20240;-81
2023/04/03 11:13:36;;;;;;;10.50;10.20;;;7.30;99.90;;;;;;5005369;28;20240;-80
2023/04/03 11:16:06;;;;;;;10.50;10.20;;;7.50;99.90;;;;;;5002509;28;20288;-84
2023/04/03 11:18:42;;;;;;;11.07;10.77;;;7.50;99.90;;;;;;5003968;28;20236;-84
2023/04/03 11:21:21;;;;;;;10.87;10.57;;;7.50;99.90;;;;;;5003398;28;20233;-83
2023/04/03 11:23:49;;;;;;;10.90;10.60;;;8.00;99.90;;;;;;5005384;28;20235;-84
2023/04/03 11:26:28;;;;;;;11.00;10.70;;;8.50;99.90;;;;;;5004626;28;20233;-84
2023/04/03 11:29:05;;;;;;;10.93;10.63;;;8.90;99.90;;;;;;5004705;28;20317;-83
2023/04/03 11:31:55;;;;;;;11.07;10.77;;;9.30;99.90;;;;;;5008224;28;20232;-83
2023/04/03 11:34:38;;;;;;;10.93;10.63;;;10.00;99.90;;;;;;5006928;28;20244;-83
2023/04/03 11:37:20;;;;;;;11.00;10.70;;;10.30;99.90;;;;;;5004755;28;20349;-84
2023/04/03 11:39:57;;;;;;;10.73;10.43;;;9.00;99.90;;;;;;5004506;28;20252;-84
2023/04/03 11:42:35;;;;;;;10.70;10.40;;;8.20;99.90;;;;;;5006707;28;20228;-83
2023/04/03 11:45:39;;;;;;;10.50;10.20;;;7.90;99.90;;;;;;5007529;28;20251;-83
2023/04/03 11:48:46;;;;;;;10.73;10.43;;;8.40;99.90;;;;;;4943470;29;20230;-83
2023/04/03 11:51:49;;;;;;;10.47;10.17;;;9.00;99.90;;;;;;5005740;28;20284;-83
2023/04/03 11:55:04;;;;;;;10.50;10.20;;;9.10;99.90;;;;;;5004801;28;20244;-84
2023/04/03 11:58:17;;;;;;;10.77;10.47;;;9.00;99.90;;;;;;4991091;28;20323;-83
2023/04/03 12:01:05;;;;;;;10.73;10.43;;;8.70;99.90;;;;;;5004708;28;20228;-83
2023/04/03 12:04:08;;;;;;;10.97;10.67;;;8.70;99.90;;;;;;5004618;28;20239;-83
2023/04/03 12:07:16;;;;;;;10.90;10.60;;;9.00;99.90;;;;;;5003785;28;20243;-84
2023/04/03 12:10:18;;;;;;;10.77;10.47;;;9.40;99.90;;;;;;5004067;28;20300;-84
2023/04/03 12:13:04;;;;;;;10.40;10.10;;;9.60;99.90;;;;;;5003696;28;20246;-84
2023/04/03 12:15:54;;;;;;;10.37;10.07;;;9.30;99.90;;;;;;5003354;28;20323;-83
2023/04/03 12:18:47;;;;;;;10.60;10.30;;;9.40;99.90;;;;;;5003491;28;20332;-83
2023/04/03 12:21:18;;;;;;;10.83;10.53;;;10.30;99.90;;;;;;5008347;28;20224;-80
2023/04/03 12:24:05;;;;;;;10.57;10.27;;;11.40;99.90;;;;;;5018293;28;20229;-80
2023/04/03 12:26:42;;;;;;;10.83;10.53;;;11.30;99.90;;;;;;5013146;28;20240;-82
2023/04/03 12:29:22;;;;;;;10.53;10.23;;;10.60;99.90;;;;;;5005875;28;20243;-81
2023/04/03 12:32:10;;;;;;;10.37;10.07;;;9.80;99.90;;;;;;5003202;28;20340;-81
2023/04/03 12:35:09;;;;;;;10.67;10.37;;;9.40;99.90;;;;;;5007684;28;20233;-81
2023/04/03 12:37:57;;;;;;;10.87;10.57;;;9.80;99.90;;;;;;5006429;28;20320;-81
2023/04/03 12:40:32;;;;;;;10.80;10.50;;;10.30;99.90;;;;;;5006913;28;20225;-83
2023/04/03 12:43:24;;;;;;;10.77;10.47;;;10.70;99.90;;;;;;5009799;28;20266;-83
2023/04/03 12:46:04;;;;;;;10.50;10.20;;;11.50;99.90;;;;;;5006270;28;20233;-82
2023/04/03 12:48:41;;;;;;;10.90;10.60;;;11.70;99.90;;;;;;5004987;28;20241;-82
2023/04/03 12:51:10;;;;;;;10.80;10.50;;;12.20;99.90;;;;;;5005026;28;20236;-83
2023/04/03 12:53:41;;;;;;;10.80;10.50;;;12.00;99.90;;;;;;5004477;28;20241;-82
2023/04/03 12:56:36;;;;;;;10.53;10.23;;;11.40;99.90;;;;;;5003909;28;20236;-82
2023/04/03 12:59:17;;;;;;;10.60;10.30;;;11.20;99.90;;;;;;5002080;28;20336;-82
2023/04/03 13:01:54;;;;;;;10.33;10.03;;;11.60;99.90;;;;;;5003424;28;20239;-82
2023/04/03 13:04:22;;;;;;;10.60;10.30;;;12.00;99.90;;;;;;5008888;28;20292;-82
2023/04/03 13:06:50;;;;;;;10.77;10.47;;;12.40;99.90;;;;;;5003933;28;20233;-82
2023/04/03 13:09:23;;;;;;;10.83;10.53;;;11.50;99.90;;;;;;5003672;28;20224;-82
2023/04/03 13:11:56;;;;;;;10.70;10.40;;;11.40;99.90;;;;;;5003470;28;20323;-82
2023/04/03 13:14:28;;;;;;;11.00;10.70;;;11.90;99.90;;;;;;5003504;28;20243;-82
2023/04/03 13:17:04;;;;;;;10.90;10.60;;;12.00;99.90;;;;;;5002339;28;20331;-82
2023/04/03 13:19:36;;;;;;;10.73;10.43;;;11.70;99.90;;;;;;5002528;28;20244;-82
2023/04/03 13:22:08;;;;;;;10.97;10.67;;;11.70;99.90;;;;;;5002886;28;20233;-82